Time;durP1;ratioP1;P1;durP2;ratioP2;P2;SDS_P1;SDS_P2;PMS_P1;PMS_P2;Temp;Humidity;BMP_temperature;BMP_pressure;BME280_temperature;BME280_humidity;BME280_pressure;Samples;Min_cycle;Max_cycle;Signal;HPM_P1;HPM_P2
2022/03/15 00:00:24;;;;;;;20.70;7.80;;;2.00;99.90;;;;;;4987730;28;20137;-86
2022/03/15 00:02:50;;;;;;;20.60;8.82;;;1.90;99.90;;;;;;4974853;28;20050;-87
2022/03/15 00:05:17;;;;;;;24.83;8.82;;;2.00;99.90;;;;;;4973315;28;20530;-87
2022/03/15 00:07:44;;;;;;;26.05;9.95;;;1.90;99.90;;;;;;4978226;28;20153;-86
2022/03/15 00:10:12;;;;;;;25.95;10.07;;;1.80;99.90;;;;;;4986064;28;20081;-89
2022/03/15 00:12:39;;;;;;;30.33;10.35;;;1.80;99.90;;;;;;4993811;28;20739;-84
2022/03/15 00:15:08;;;;;;;22.55;10.07;;;1.80;99.90;;;;;;4975038;28;20121;-84
2022/03/15 00:17:35;;;;;;;21.27;10.70;;;1.90;99.90;;;;;;4975818;28;20051;-84
2022/03/15 00:20:03;;;;;;;25.75;10.52;;;2.00;99.90;;;;;;4961613;28;20050;-85
2022/03/15 00:22:35;;;;;;;26.70;11.00;;;1.90;99.90;;;;;;4987526;28;20050;-88
2022/03/15 00:25:03;;;;;;;28.13;10.05;;;1.90;99.90;;;;;;4969494;28;20097;-84
2022/03/15 00:27:29;;;;;;;27.02;9.88;;;1.90;99.90;;;;;;4974580;28;20046;-89
2022/03/15 00:29:55;;;;;;;27.95;10.38;;;2.00;99.90;;;;;;4991386;28;20396;-85
2022/03/15 00:32:21;;;;;;;21.50;9.98;;;2.00;99.90;;;;;;4960773;28;20055;-90
2022/03/15 00:34:47;;;;;;;21.45;10.10;;;2.00;99.90;;;;;;4974748;28;20129;-85
2022/03/15 00:37:13;;;;;;;19.23;10.07;;;2.00;99.90;;;;;;4987698;28;20054;-86
2022/03/15 00:39:41;;;;;;;27.42;10.35;;;2.00;99.90;;;;;;5005732;28;20042;-85
2022/03/15 00:42:07;;;;;;;21.38;10.15;;;2.10;99.90;;;;;;4992924;28;20452;-85
2022/03/15 00:44:33;;;;;;;24.27;10.77;;;2.00;99.90;;;;;;4975312;28;20110;-85
2022/03/15 00:46:59;;;;;;;29.23;10.77;;;2.00;99.90;;;;;;4992462;28;20511;-84
2022/03/15 00:49:25;;;;;;;23.35;10.13;;;2.00;99.90;;;;;;4948038;28;20047;-84
2022/03/15 00:51:51;;;;;;;29.88;10.70;;;1.90;99.90;;;;;;4993464;28;20153;-84
2022/03/15 00:54:17;;;;;;;28.50;11.15;;;1.90;99.90;;;;;;4992784;28;20042;-84
2022/03/15 00:56:43;;;;;;;29.00;12.20;;;1.90;99.90;;;;;;4993770;28;20104;-84
2022/03/15 00:59:09;;;;;;;28.55;12.93;;;1.90;99.90;;;;;;4983014;28;20051;-86
2022/03/15 01:01:35;;;;;;;30.90;12.55;;;1.90;99.90;;;;;;4959965;28;20069;-84
2022/03/15 01:04:01;;;;;;;29.33;12.52;;;1.80;99.90;;;;;;4992233;28;20049;-87
2022/03/15 01:06:27;;;;;;;35.15;14.85;;;1.80;99.90;;;;;;4968377;28;20039;-85
2022/03/15 01:08:52;;;;;;;23.38;10.90;;;1.80;99.90;;;;;;4969391;28;20077;-85
2022/03/15 01:11:18;;;;;;;27.63;9.63;;;1.80;99.90;;;;;;4976746;28;20046;-84
2022/03/15 01:13:44;;;;;;;28.95;9.80;;;1.80;99.90;;;;;;4972338;28;20034;-85
2022/03/15 01:16:09;;;;;;;26.13;10.07;;;1.70;99.90;;;;;;4977946;28;20542;-86
2022/03/15 01:18:36;;;;;;;23.13;9.23;;;1.70;99.90;;;;;;4975394;28;20050;-85
2022/03/15 01:21:02;;;;;;;21.27;9.25;;;1.60;99.90;;;;;;4965290;28;20100;-85
2022/03/15 01:23:28;;;;;;;23.95;9.80;;;1.60;99.90;;;;;;4965855;28;20042;-84
2022/03/15 01:25:55;;;;;;;22.20;9.57;;;1.60;99.90;;;;;;4978768;28;20100;-85
2022/03/15 01:28:21;;;;;;;18.35;9.05;;;1.50;99.90;;;;;;4976180;28;20491;-84
2022/03/15 01:30:46;;;;;;;24.75;10.02;;;1.40;99.90;;;;;;4963108;28;20051;-85
2022/03/15 01:33:12;;;;;;;25.85;11.38;;;1.40;99.90;;;;;;4959541;28;20463;-84
2022/03/15 01:35:38;;;;;;;22.80;9.63;;;1.40;99.90;;;;;;4958811;28;20116;-84
2022/03/15 01:38:04;;;;;;;18.13;10.43;;;1.40;99.90;;;;;;4959584;28;20133;-85
2022/03/15 01:40:30;;;;;;;27.33;10.63;;;1.40;99.90;;;;;;4974773;28;20527;-84
2022/03/15 01:42:55;;;;;;;19.42;10.32;;;1.30;99.90;;;;;;4974687;28;20050;-85
2022/03/15 01:45:30;;;;;;;20.50;10.05;;;1.30;99.90;;;;;;4958719;28;20076;-85
2022/03/15 01:47:56;;;;;;;21.23;9.70;;;1.30;99.90;;;;;;4966560;28;20050;-85
2022/03/15 01:50:22;;;;;;;18.67;9.60;;;1.20;99.90;;;;;;4955148;28;20054;-83
2022/03/15 01:52:48;;;;;;;19.98;10.30;;;1.20;99.90;;;;;;4964509;28;20050;-84
2022/03/15 01:55:14;;;;;;;19.70;10.50;;;1.20;99.90;;;;;;4981886;28;20068;-84
2022/03/15 01:57:40;;;;;;;26.88;10.82;;;1.20;99.90;;;;;;4968259;28;20066;-84
2022/03/15 02:00:06;;;;;;;24.42;11.30;;;1.30;99.90;;;;;;4992553;28;20491;-86
2022/03/15 02:02:32;;;;;;;25.05;10.57;;;1.20;99.90;;;;;;4975421;28;20563;-85
2022/03/15 02:04:58;;;;;;;20.25;10.05;;;1.20;99.90;;;;;;4975722;28;20038;-85
2022/03/15 02:07:24;;;;;;;33.13;11.60;;;1.30;99.90;;;;;;4956714;28;20518;-86
2022/03/15 02:09:51;;;;;;;22.50;11.05;;;1.30;99.90;;;;;;4991606;28;20046;-85
2022/03/15 02:12:17;;;;;;;18.77;11.15;;;1.40;99.90;;;;;;4974975;28;20042;-85
2022/03/15 02:14:42;;;;;;;23.48;11.13;;;1.40;99.90;;;;;;4990151;28;20156;-84
2022/03/15 02:17:08;;;;;;;25.83;10.95;;;1.50;99.90;;;;;;4973340;28;20050;-84
2022/03/15 02:19:35;;;;;;;28.15;11.32;;;1.60;99.90;;;;;;4991327;28;20050;-84
2022/03/15 02:22:01;;;;;;;25.55;12.05;;;1.70;99.90;;;;;;4975522;28;20484;-85
2022/03/15 02:24:27;;;;;;;24.23;11.90;;;1.80;99.90;;;;;;4991044;28;20039;-85
2022/03/15 02:26:52;;;;;;;27.83;12.63;;;1.90;99.90;;;;;;4985919;28;20116;-88
2022/03/15 02:29:22;;;;;;;25.30;12.45;;;2.00;99.90;;;;;;4957802;28;20050;-86
2022/03/15 02:31:49;;;;;;;22.58;11.80;;;2.20;99.90;;;;;;4985103;28;20046;-84
2022/03/15 02:34:16;;;;;;;26.42;13.45;;;2.20;99.90;;;;;;4974126;28;20053;-86
2022/03/15 02:36:44;;;;;;;25.92;12.77;;;2.30;99.90;;;;;;4974805;28;20046;-85
2022/03/15 02:39:10;;;;;;;25.38;13.27;;;2.60;99.90;;;;;;4990842;28;20136;-85
2022/03/15 02:41:35;;;;;;;28.10;13.40;;;2.60;99.90;;;;;;4981595;28;20133;-85
2022/03/15 02:44:01;;;;;;;27.80;13.82;;;2.70;99.90;;;;;;4975494;28;20181;-85
2022/03/15 02:46:29;;;;;;;27.17;13.75;;;2.80;99.90;;;;;;4975149;28;20054;-84
2022/03/15 02:48:55;;;;;;;30.73;14.77;;;2.80;99.90;;;;;;4987845;28;20092;-85
2022/03/15 02:51:21;;;;;;;26.45;14.13;;;2.90;99.90;;;;;;4972549;28;20046;-84
2022/03/15 02:53:47;;;;;;;24.10;14.25;;;2.90;99.90;;;;;;4988716;28;20085;-86
2022/03/15 02:56:13;;;;;;;28.52;14.15;;;3.00;99.90;;;;;;4989672;28;20050;-88
2022/03/15 02:58:39;;;;;;;26.25;13.73;;;2.90;99.90;;;;;;4957902;28;20148;-86
2022/03/15 03:01:06;;;;;;;18.42;12.63;;;2.80;99.90;;;;;;4972811;28;20546;-85
2022/03/15 03:03:32;;;;;;;28.05;14.65;;;2.70;99.90;;;;;;4972927;28;20096;-90
2022/03/15 03:05:58;;;;;;;26.65;13.18;;;2.70;99.90;;;;;;4986062;28;20136;-84
2022/03/15 03:08:26;;;;;;;24.45;13.70;;;2.60;99.90;;;;;;4954839;28;20058;-87
2022/03/15 03:10:55;;;;;;;26.88;14.05;;;2.50;99.90;;;;;;4973205;28;20503;-85
2022/03/15 03:13:25;;;;;;;31.02;15.52;;;2.50;99.90;;;;;;4958271;28;20053;-85
2022/03/15 03:15:56;;;;;;;32.15;15.68;;;2.50;99.90;;;;;;4987371;28;20074;-85
2022/03/15 03:18:23;;;;;;;28.33;16.05;;;2.40;99.90;;;;;;5005012;28;20128;-84
2022/03/15 03:20:49;;;;;;;29.48;15.85;;;2.40;99.90;;;;;;4983899;28;20164;-85
2022/03/15 03:23:15;;;;;;;31.20;15.05;;;2.30;99.90;;;;;;4972572;28;20105;-86
2022/03/15 03:25:40;;;;;;;34.00;16.25;;;2.20;99.90;;;;;;4987484;28;20053;-85
2022/03/15 03:28:08;;;;;;;34.10;16.73;;;2.20;99.90;;;;;;4989069;28;20046;-85
2022/03/15 03:30:37;;;;;;;36.83;15.48;;;2.20;99.90;;;;;;4989339;28;20055;-88
2022/03/15 03:33:04;;;;;;;33.67;16.70;;;2.20;99.90;;;;;;4973675;28;20073;-86
2022/03/15 03:35:30;;;;;;;33.85;16.55;;;2.20;99.90;;;;;;4956816;28;20129;-85
2022/03/15 03:37:56;;;;;;;32.85;16.67;;;2.10;99.90;;;;;;4988265;28;20042;-85
2022/03/15 03:40:22;;;;;;;34.08;16.52;;;2.10;99.90;;;;;;4990119;28;20097;-85
2022/03/15 03:42:48;;;;;;;39.35;15.68;;;2.10;99.90;;;;;;4984942;28;20061;-84
2022/03/15 03:45:13;;;;;;;29.50;14.88;;;2.10;99.90;;;;;;4988836;28;20133;-91
2022/03/15 03:47:39;;;;;;;30.55;14.90;;;2.00;99.90;;;;;;4959436;28;20046;-86
2022/03/15 03:50:11;;;;;;;33.08;17.15;;;2.10;99.90;;;;;;4975648;28;20042;-85
2022/03/15 03:52:36;;;;;;;29.50;16.08;;;2.10;99.90;;;;;;4991858;28;20084;-90
2022/03/15 03:55:02;;;;;;;35.53;16.27;;;2.20;99.90;;;;;;4991527;28;20078;-86
2022/03/15 03:57:29;;;;;;;30.55;15.10;;;2.20;99.90;;;;;;4975260;28;20054;-84
2022/03/15 03:59:54;;;;;;;31.23;15.52;;;2.20;99.90;;;;;;4958646;28;20046;-86
2022/03/15 04:02:20;;;;;;;27.17;14.43;;;2.20;99.90;;;;;;4992353;28;20054;-85
2022/03/15 04:04:47;;;;;;;28.08;15.07;;;2.30;99.90;;;;;;4986887;28;20118;-85
2022/03/15 04:07:12;;;;;;;29.60;15.80;;;2.30;99.90;;;;;;4992190;28;20057;-84
2022/03/15 04:09:39;;;;;;;33.25;16.60;;;2.30;99.90;;;;;;4975927;28;20049;-91
2022/03/15 04:12:06;;;;;;;32.20;16.15;;;2.40;99.90;;;;;;4992421;28;20057;-86
2022/03/15 04:14:34;;;;;;;29.52;15.07;;;2.50;99.90;;;;;;4992227;28;20042;-85
2022/03/15 04:17:00;;;;;;;26.48;14.65;;;2.50;99.90;;;;;;4975839;28;20050;-86
2022/03/15 04:19:26;;;;;;;27.65;14.32;;;2.60;99.90;;;;;;4992298;28;20054;-85
2022/03/15 04:21:52;;;;;;;27.85;15.45;;;2.60;99.90;;;;;;4976753;28;20562;-84
2022/03/15 04:24:18;;;;;;;32.90;16.33;;;2.60;99.90;;;;;;4971982;28;20097;-85
2022/03/15 04:26:44;;;;;;;31.60;16.05;;;2.70;99.90;;;;;;4974501;28;20145;-85
2022/03/15 04:29:10;;;;;;;28.23;15.57;;;2.70;99.90;;;;;;4972862;28;20047;-88
2022/03/15 04:31:35;;;;;;;36.42;16.10;;;2.70;99.90;;;;;;4993269;28;20061;-85
2022/03/15 04:34:01;;;;;;;30.63;16.38;;;2.80;99.90;;;;;;4992623;28;20555;-85
2022/03/15 04:36:27;;;;;;;30.25;15.38;;;2.80;99.90;;;;;;4993499;28;20432;-85
2022/03/15 04:38:53;;;;;;;33.38;16.40;;;2.90;99.90;;;;;;4993495;28;20108;-84
2022/03/15 04:41:19;;;;;;;48.00;17.98;;;2.90;99.90;;;;;;4992453;28;20528;-86
2022/03/15 04:43:45;;;;;;;33.65;15.45;;;3.00;99.90;;;;;;4992764;28;20076;-84
2022/03/15 04:46:11;;;;;;;35.80;16.33;;;3.00;99.90;;;;;;4973436;28;20046;-85
2022/03/15 04:48:37;;;;;;;30.00;15.88;;;3.10;99.90;;;;;;4991885;28;20053;-85
2022/03/15 04:51:03;;;;;;;38.97;18.33;;;3.10;99.90;;;;;;4992617;28;20424;-85
2022/03/15 04:53:29;;;;;;;41.80;18.77;;;3.10;99.90;;;;;;4957634;28;20054;-87
2022/03/15 04:55:54;;;;;;;37.50;18.25;;;3.20;99.90;;;;;;4992316;28;20088;-86
2022/03/15 04:58:20;;;;;;;50.40;20.38;;;3.20;99.90;;;;;;4976494;28;20141;-85
2022/03/15 05:00:46;;;;;;;44.45;20.98;;;3.30;99.90;;;;;;4970450;28;20116;-85
2022/03/15 05:03:16;;;;;;;33.55;17.48;;;3.30;99.90;;;;;;4958148;28;20046;-85
2022/03/15 05:05:43;;;;;;;39.53;18.08;;;3.40;99.90;;;;;;4960728;28;20042;-90
2022/03/15 05:08:08;;;;;;;38.45;18.33;;;3.40;99.90;;;;;;4975622;28;20042;-86
2022/03/15 05:13:20;;;;;;;47.05;19.33;;;3.40;99.90;;;;;;4967551;28;20057;-88
2022/03/15 05:15:47;;;;;;;44.83;19.30;;;3.40;99.90;;;;;;4975404;28;20518;-85
2022/03/15 05:18:13;;;;;;;41.22;19.08;;;3.50;99.90;;;;;;4973216;28;20058;-85
2022/03/15 05:20:38;;;;;;;38.85;20.75;;;3.60;99.90;;;;;;4976384;28;20046;-86
2022/03/15 05:23:04;;;;;;;39.08;20.50;;;3.50;99.90;;;;;;4992251;28;20100;-86
2022/03/15 05:25:30;;;;;;;43.28;22.23;;;3.50;99.90;;;;;;4974029;28;20046;-85
2022/03/15 05:27:57;;;;;;;44.80;21.63;;;3.50;99.90;;;;;;5008135;28;20128;-86
2022/03/15 05:30:23;;;;;;;41.78;20.80;;;3.50;99.90;;;;;;4992819;28;20046;-86
2022/03/15 05:32:49;;;;;;;48.40;21.98;;;3.50;99.90;;;;;;4976099;28;20118;-84
2022/03/15 05:35:15;;;;;;;50.55;23.10;;;3.50;99.90;;;;;;4986330;28;20193;-85
2022/03/15 05:37:41;;;;;;;46.20;20.40;;;3.60;99.90;;;;;;4992714;28;20476;-84
2022/03/15 05:40:09;;;;;;;40.47;19.80;;;3.60;99.90;;;;;;4975413;28;20076;-84
2022/03/15 05:42:35;;;;;;;41.97;19.80;;;3.60;99.90;;;;;;4988565;28;20057;-84
2022/03/15 05:45:02;;;;;;;40.97;21.13;;;3.60;99.90;;;;;;4977482;28;20373;-84
2022/03/15 05:47:27;;;;;;;42.90;19.35;;;3.60;99.90;;;;;;4975007;28;20196;-84
2022/03/15 05:49:53;;;;;;;45.75;22.08;;;3.60;99.90;;;;;;4975774;28;20129;-84
2022/03/15 05:52:19;;;;;;;38.90;19.63;;;3.70;99.90;;;;;;4990829;28;20054;-86
2022/03/15 05:54:44;;;;;;;41.53;20.88;;;3.70;99.90;;;;;;4958185;28;20057;-88
2022/03/15 05:57:10;;;;;;;46.03;22.67;;;3.70;99.90;;;;;;4970323;28;20042;-85
2022/03/15 05:59:36;;;;;;;48.35;23.05;;;3.70;99.90;;;;;;4973903;28;20117;-85
2022/03/15 06:02:02;;;;;;;47.10;23.73;;;3.80;99.90;;;;;;4989388;28;20134;-85
2022/03/15 06:04:28;;;;;;;46.90;24.02;;;3.90;99.90;;;;;;4971847;28;20049;-86
2022/03/15 06:06:57;;;;;;;56.55;25.83;;;3.90;99.90;;;;;;4952312;28;20112;-85
2022/03/15 06:09:24;;;;;;;53.40;26.65;;;4.00;99.90;;;;;;4990383;28;20042;-84
2022/03/15 06:11:51;;;;;;;55.25;27.35;;;4.10;99.90;;;;;;4974234;28;20043;-84
2022/03/15 06:14:36;;;;;;;55.00;27.13;;;4.20;99.90;;;;;;4976736;28;20052;-84
2022/03/15 06:17:03;;;;;;;64.70;27.55;;;4.20;99.90;;;;;;4996945;28;20050;-83
2022/03/15 06:19:28;;;;;;;56.83;27.77;;;4.30;99.90;;;;;;4975100;28;20057;-84
2022/03/15 06:21:54;;;;;;;55.75;26.15;;;4.40;99.90;;;;;;4993243;28;20054;-86
2022/03/15 06:24:20;;;;;;;58.58;28.38;;;4.50;99.90;;;;;;4990435;28;20517;-81
2022/03/15 06:26:46;;;;;;;50.53;26.27;;;4.50;99.90;;;;;;4975283;28;20065;-83
2022/03/15 06:29:11;;;;;;;53.90;27.50;;;4.70;99.90;;;;;;4990194;28;20046;-84
2022/03/15 06:31:38;;;;;;;58.33;29.00;;;4.60;99.90;;;;;;4990916;28;20079;-83
2022/03/15 06:34:04;;;;;;;55.88;27.27;;;4.60;99.90;;;;;;4975058;28;20049;-87
2022/03/15 06:36:30;;;;;;;67.32;28.30;;;4.90;99.90;;;;;;4991329;28;20046;-86
2022/03/15 06:38:57;;;;;;;61.65;28.30;;;4.90;99.90;;;;;;4965136;28;20043;-84
2022/03/15 06:41:22;;;;;;;64.35;30.40;;;4.90;99.90;;;;;;4984391;28;20174;-86
2022/03/15 06:43:48;;;;;;;68.97;31.58;;;5.00;99.90;;;;;;4950233;28;20603;-85
2022/03/15 06:46:17;;;;;;;65.75;28.13;;;5.00;99.90;;;;;;4990915;28;20546;-85
2022/03/15 06:48:42;;;;;;;59.90;28.27;;;5.10;99.90;;;;;;4990936;28;20050;-83
2022/03/15 06:51:08;;;;;;;60.42;30.30;;;5.20;99.90;;;;;;4981024;28;20043;-84
2022/03/15 06:53:34;;;;;;;60.92;29.30;;;5.20;99.90;;;;;;4957744;28;20054;-82
2022/03/15 06:56:00;;;;;;;65.78;31.05;;;5.10;99.90;;;;;;4966946;28;20104;-83
2022/03/15 06:58:25;;;;;;;64.70;30.90;;;5.30;99.90;;;;;;4973156;28;20058;-84
2022/03/15 07:00:54;;;;;;;75.47;33.10;;;5.40;99.90;;;;;;4986458;28;20404;-86
2022/03/15 07:03:19;;;;;;;72.65;33.67;;;5.40;99.90;;;;;;5007812;28;20549;-82
2022/03/15 07:05:45;;;;;;;67.18;31.75;;;5.50;99.90;;;;;;4975272;28;20185;-83
2022/03/15 07:08:11;;;;;;;67.40;31.80;;;5.60;99.90;;;;;;4974765;28;20050;-82
2022/03/15 07:10:37;;;;;;;64.88;32.60;;;5.60;99.90;;;;;;4973969;28;20057;-82
2022/03/15 07:13:03;;;;;;;93.28;45.92;;;5.70;99.90;;;;;;4988863;28;20042;-85
2022/03/15 07:15:29;;;;;;;88.35;42.03;;;5.70;99.90;;;;;;4979523;28;20197;-82
2022/03/15 07:17:57;;;;;;;105.15;48.55;;;5.80;99.90;;;;;;4978929;28;20169;-89
2022/03/15 07:20:24;;;;;;;88.95;44.75;;;5.90;99.90;;;;;;4995468;28;20181;-84
2022/03/15 07:22:50;;;;;;;71.18;37.60;;;6.00;99.90;;;;;;4995509;28;20050;-82
2022/03/15 07:25:17;;;;;;;55.50;29.63;;;6.00;99.90;;;;;;4978052;28;20046;-82
2022/03/15 07:27:43;;;;;;;56.05;28.45;;;6.10;99.90;;;;;;4998659;28;20054;-82
2022/03/15 07:30:09;;;;;;;59.53;28.30;;;6.10;99.90;;;;;;4996937;28;20064;-82
2022/03/15 07:32:35;;;;;;;51.42;27.83;;;6.20;99.90;;;;;;4987783;28;20050;-85
2022/03/15 07:35:02;;;;;;;56.20;28.00;;;6.30;99.90;;;;;;4974511;28;20132;-82
2022/03/15 07:37:27;;;;;;;52.05;28.35;;;6.30;99.90;;;;;;4974296;28;20068;-83
2022/03/15 07:39:53;;;;;;;51.20;28.80;;;6.40;99.90;;;;;;4977743;28;20818;-82
2022/03/15 07:42:19;;;;;;;54.85;28.30;;;6.50;99.90;;;;;;4974511;28;20053;-86
2022/03/15 07:44:45;;;;;;;57.65;29.45;;;6.50;99.90;;;;;;4961225;28;20050;-85
2022/03/15 07:47:14;;;;;;;54.30;28.63;;;6.50;99.90;;;;;;4993830;28;20074;-84
2022/03/15 07:49:40;;;;;;;54.03;29.63;;;6.60;99.90;;;;;;4994185;28;20058;-85
2022/03/15 07:52:06;;;;;;;55.42;29.60;;;6.70;99.90;;;;;;4992232;28;20058;-84
2022/03/15 07:54:32;;;;;;;55.55;29.85;;;6.80;99.90;;;;;;4984919;28;20051;-84
2022/03/15 07:56:58;;;;;;;54.97;29.60;;;6.80;99.90;;;;;;4985120;28;20054;-89
2022/03/15 07:59:24;;;;;;;59.55;29.35;;;6.90;99.90;;;;;;4958039;28;20117;-86
2022/03/15 08:01:50;;;;;;;52.97;29.55;;;7.00;99.90;;;;;;4956365;28;20050;-84
2022/03/15 08:04:16;;;;;;;59.05;31.33;;;7.10;99.90;;;;;;4975331;28;20112;-85
2022/03/15 08:06:42;;;;;;;62.35;33.38;;;7.10;99.90;;;;;;4960830;28;20073;-84
2022/03/15 08:09:08;;;;;;;57.42;32.03;;;7.10;99.90;;;;;;4992281;28;20046;-84
2022/03/15 08:11:35;;;;;;;59.30;32.47;;;7.10;99.90;;;;;;4980557;28;20050;-84
2022/03/15 08:14:01;;;;;;;63.33;33.15;;;7.20;99.90;;;;;;4992884;28;20034;-85
2022/03/15 08:16:27;;;;;;;57.53;31.50;;;7.20;99.90;;;;;;4977219;28;20054;-84
2022/03/15 08:18:54;;;;;;;56.45;31.23;;;7.30;99.90;;;;;;4988531;28;20445;-84
2022/03/15 08:21:21;;;;;;;56.25;31.00;;;7.30;99.90;;;;;;4974798;28;20052;-85
2022/03/15 08:23:47;;;;;;;64.38;33.38;;;7.40;99.90;;;;;;4993152;28;20046;-84
2022/03/15 08:26:14;;;;;;;58.67;32.13;;;7.40;99.90;;;;;;4973474;28;20051;-84
2022/03/15 08:28:40;;;;;;;59.35;31.10;;;7.40;99.90;;;;;;4992778;28;20496;-85
2022/03/15 08:31:05;;;;;;;58.10;30.50;;;7.50;99.90;;;;;;4991336;28;20082;-85
2022/03/15 08:33:32;;;;;;;55.70;33.00;;;7.50;99.90;;;;;;4992876;28;20074;-85
2022/03/15 08:35:58;;;;;;;58.38;31.52;;;7.40;99.90;;;;;;4984530;28;20050;-86
2022/03/15 08:38:25;;;;;;;57.33;32.08;;;7.50;99.90;;;;;;4971554;28;20878;-86
2022/03/15 08:40:52;;;;;;;56.08;31.15;;;7.50;99.90;;;;;;4990000;28;20058;-85
2022/03/15 08:43:18;;;;;;;58.55;31.92;;;7.50;99.90;;;;;;4974457;28;20062;-84
2022/03/15 08:45:44;;;;;;;54.88;31.38;;;7.60;99.90;;;;;;4976874;28;20050;-87
2022/03/15 08:48:10;;;;;;;52.95;31.35;;;7.60;99.90;;;;;;4991644;28;20104;-84
2022/03/15 08:50:36;;;;;;;56.83;31.38;;;7.60;99.90;;;;;;4996019;28;20090;-87
2022/03/15 08:53:02;;;;;;;56.30;32.15;;;7.60;99.90;;;;;;4971024;28;20475;-90
2022/03/15 08:55:28;;;;;;;56.40;32.25;;;7.60;99.90;;;;;;4991787;28;20077;-85
2022/03/15 08:57:54;;;;;;;56.15;31.48;;;7.60;99.90;;;;;;4993108;28;20133;-85
2022/03/15 09:00:20;;;;;;;57.90;33.45;;;7.60;99.90;;;;;;4984803;28;20138;-85
2022/03/15 09:02:46;;;;;;;51.78;32.45;;;7.50;99.90;;;;;;4971892;28;20042;-86
2022/03/15 09:05:12;;;;;;;61.90;33.92;;;7.50;99.90;;;;;;4976041;28;20038;-84
2022/03/15 09:07:39;;;;;;;50.40;31.83;;;7.50;99.90;;;;;;4993179;28;20129;-85
2022/03/15 09:10:06;;;;;;;55.63;33.22;;;7.50;99.90;;;;;;4978780;28;20068;-87
2022/03/15 09:12:34;;;;;;;56.30;31.45;;;7.50;99.90;;;;;;4974472;28;20077;-84
2022/03/15 09:15:00;;;;;;;58.65;33.47;;;7.50;99.90;;;;;;4978822;28;20046;-86
2022/03/15 09:17:25;;;;;;;55.38;33.10;;;7.50;99.90;;;;;;4976038;28;20054;-85
2022/03/15 09:19:51;;;;;;;63.97;36.65;;;7.40;99.90;;;;;;4960118;28;20404;-84
2022/03/15 09:22:18;;;;;;;58.13;34.33;;;7.50;99.90;;;;;;4976101;28;20054;-84
2022/03/15 09:24:43;;;;;;;65.10;36.92;;;7.60;99.90;;;;;;4980578;28;20045;-84
2022/03/15 09:27:10;;;;;;;56.83;34.78;;;7.70;99.90;;;;;;4992150;28;20507;-85
2022/03/15 09:29:36;;;;;;;69.32;37.78;;;7.80;99.90;;;;;;4991928;28;20214;-88
2022/03/15 09:32:04;;;;;;;82.65;43.42;;;7.80;99.90;;;;;;4991175;28;20050;-84
2022/03/15 09:34:30;;;;;;;79.82;45.25;;;7.90;99.90;;;;;;4971434;28;20089;-86
2022/03/15 09:36:59;;;;;;;63.33;37.88;;;8.00;99.90;;;;;;4968687;28;20518;-87
2022/03/15 09:39:25;;;;;;;65.05;33.50;;;8.10;99.90;;;;;;4991308;28;20042;-85
2022/03/15 09:41:54;;;;;;;53.38;33.13;;;8.10;99.90;;;;;;4976571;28;20053;-84
2022/03/15 09:44:21;;;;;;;52.10;32.65;;;8.20;99.90;;;;;;4990602;28;20038;-86
2022/03/15 09:46:51;;;;;;;54.78;34.78;;;8.20;99.90;;;;;;4958428;28;20050;-84
2022/03/15 09:49:19;;;;;;;51.65;31.75;;;8.20;99.90;;;;;;4972986;28;20046;-84
2022/03/15 09:51:48;;;;;;;52.17;32.20;;;8.20;99.90;;;;;;4973875;28;20046;-88
2022/03/15 09:54:14;;;;;;;54.33;33.70;;;8.30;99.90;;;;;;4976747;28;20527;-86
2022/03/15 09:56:40;;;;;;;50.60;32.20;;;8.30;99.90;;;;;;4990821;28;20514;-83
2022/03/15 09:59:16;;;;;;;55.00;35.25;;;8.30;99.90;;;;;;4974778;28;20057;-84
2022/03/15 10:01:50;;;;;;;50.10;33.20;;;8.30;99.90;;;;;;4975436;28;20112;-83
2022/03/15 10:04:16;;;;;;;54.03;33.88;;;8.30;99.90;;;;;;4973765;28;20950;-85
2022/03/15 10:06:42;;;;;;;55.33;33.70;;;8.30;99.90;;;;;;4990767;28;20042;-84
2022/03/15 10:09:09;;;;;;;53.55;33.22;;;8.30;99.90;;;;;;4960444;28;20069;-89
2022/03/15 10:11:37;;;;;;;51.95;31.10;;;8.40;99.90;;;;;;4977964;28;20054;-84
2022/03/15 10:14:04;;;;;;;53.22;32.50;;;8.50;99.90;;;;;;4990013;28;20084;-83
2022/03/15 10:16:36;;;;;;;48.20;30.63;;;8.60;99.90;;;;;;4990192;28;20046;-84
2022/03/15 10:19:03;;;;;;;45.63;28.85;;;8.70;99.90;;;;;;4974826;28;20105;-83
2022/03/15 10:21:44;;;;;;;47.20;31.40;;;8.80;99.90;;;;;;4990332;28;20682;-83
2022/03/15 10:24:10;;;;;;;42.17;29.30;;;8.90;99.90;;;;;;4973442;28;20068;-84
2022/03/15 10:26:40;;;;;;;40.83;28.77;;;9.10;99.90;;;;;;4990221;28;20054;-83
2022/03/15 10:29:07;;;;;;;45.53;28.80;;;9.30;99.90;;;;;;4982151;28;20049;-83
2022/03/15 10:31:37;;;;;;;43.13;28.35;;;9.30;99.90;;;;;;4974554;28;20038;-83
2022/03/15 10:34:07;;;;;;;42.85;28.92;;;9.50;99.90;;;;;;4973323;28;20129;-83
2022/03/15 10:36:44;;;;;;;43.58;30.40;;;9.60;99.90;;;;;;4974865;28;20046;-83
2022/03/15 10:39:12;;;;;;;44.58;27.92;;;9.70;99.90;;;;;;4981299;28;20503;-87
2022/03/15 10:41:53;;;;;;;43.30;29.10;;;9.80;99.90;;;;;;5026505;28;20381;-84
2022/03/15 10:44:29;;;;;;;42.35;27.63;;;9.80;99.90;;;;;;4994049;28;20046;-86
2022/03/15 10:47:07;;;;;;;42.45;28.08;;;9.90;99.90;;;;;;4981653;28;20054;-83
2022/03/15 10:49:54;;;;;;;42.95;27.70;;;9.80;99.90;;;;;;4990609;28;20127;-83
2022/03/15 10:52:37;;;;;;;42.85;26.30;;;9.90;99.90;;;;;;4998561;28;20050;-85
2022/03/15 10:55:26;;;;;;;38.72;25.38;;;9.90;99.90;;;;;;4993645;28;20047;-82
2022/03/15 10:58:05;;;;;;;40.88;26.02;;;9.80;99.90;;;;;;4980603;28;20055;-83
2022/03/15 11:00:38;;;;;;;41.85;25.35;;;9.80;99.90;;;;;;4972034;28;20046;-83
2022/03/15 11:03:13;;;;;;;40.03;27.08;;;9.80;99.90;;;;;;4990463;28;20129;-83
2022/03/15 11:05:40;;;;;;;40.90;26.73;;;9.80;99.90;;;;;;4974549;28;20402;-84
2022/03/15 11:08:12;;;;;;;39.58;25.98;;;9.80;99.90;;;;;;4973440;28;20113;-82
2022/03/15 11:10:39;;;;;;;38.55;26.60;;;9.90;99.90;;;;;;4971855;28;20144;-82
2022/03/15 11:13:13;;;;;;;45.35;27.02;;;9.90;99.90;;;;;;4987998;28;20048;-83
2022/03/15 11:15:48;;;;;;;36.95;25.85;;;10.00;99.90;;;;;;4978961;28;20048;-83
2022/03/15 11:18:16;;;;;;;38.67;25.85;;;10.30;99.90;;;;;;4961904;28;20054;-85
2022/03/15 11:20:44;;;;;;;36.45;26.15;;;10.70;99.90;;;;;;4974271;28;20048;-83
2022/03/15 11:23:12;;;;;;;34.42;23.77;;;11.10;99.90;;;;;;4968235;28;20054;-84
2022/03/15 11:25:48;;;;;;;33.70;23.60;;;11.40;99.90;;;;;;4972101;28;20042;-84
2022/03/15 11:28:24;;;;;;;35.45;24.15;;;11.60;99.90;;;;;;4972590;28;20054;-87
2022/03/15 11:30:52;;;;;;;33.97;24.65;;;11.70;99.90;;;;;;4973496;28;20126;-84
2022/03/15 11:33:18;;;;;;;29.58;22.75;;;11.80;99.90;;;;;;4971334;28;20500;-85
2022/03/15 11:35:44;;;;;;;31.17;21.65;;;11.90;99.90;;;;;;4974111;28;20125;-85
2022/03/15 11:38:13;;;;;;;28.42;18.83;;;12.00;99.90;;;;;;4984912;28;20129;-84
2022/03/15 11:40:40;;;;;;;31.15;21.33;;;12.20;99.90;;;;;;4975125;28;20047;-84
2022/03/15 11:43:38;;;;;;;30.45;21.77;;;12.10;99.90;;;;;;4975401;28;20058;-84
2022/03/15 11:46:26;;;;;;;30.05;21.02;;;12.10;99.90;;;;;;4995193;28;20050;-84
2022/03/15 11:49:22;;;;;;;26.27;19.60;;;12.00;99.90;;;;;;4974182;28;20046;-85
2022/03/15 11:52:11;;;;;;;31.02;19.52;;;11.90;99.90;;;;;;5005587;28;20050;-84
2022/03/15 11:54:55;;;;;;;33.40;20.20;;;11.80;99.90;;;;;;4966855;28;20159;-87
2022/03/15 11:57:38;;;;;;;32.08;20.88;;;11.80;99.90;;;;;;4994159;28;20061;-81
2022/03/15 12:00:05;;;;;;;35.28;20.23;;;11.90;99.90;;;;;;4937639;28;20096;-85
2022/03/15 12:02:39;;;;;;;31.05;20.58;;;11.90;99.90;;;;;;4966369;28;20065;-82
2022/03/15 12:05:25;;;;;;;29.88;18.85;;;12.00;99.90;;;;;;4987489;28;20081;-83
2022/03/15 12:08:15;;;;;;;31.73;19.38;;;12.00;99.90;;;;;;4928163;28;20543;-83
2022/03/15 12:10:52;;;;;;;28.08;17.38;;;12.10;99.90;;;;;;4923908;29;20113;-83
2022/03/15 12:13:20;;;;;;;27.50;16.25;;;12.20;99.90;;;;;;4984262;28;20105;-84
2022/03/15 12:15:48;;;;;;;23.67;15.40;;;12.20;99.90;;;;;;4967532;28;20046;-82
2022/03/15 12:21:17;;;;;;;26.20;13.57;;;12.20;99.90;;;;;;4968076;28;20090;-81
2022/03/15 12:23:48;;;;;;;21.15;14.30;;;12.30;99.90;;;;;;4974389;28;20058;-81
2022/03/15 12:26:21;;;;;;;22.67;14.77;;;12.40;99.90;;;;;;4975481;28;20049;-81
2022/03/15 12:29:07;;;;;;;21.02;13.00;;;12.60;99.90;;;;;;4948208;28;20049;-83
2022/03/15 12:31:42;;;;;;;22.45;12.75;;;12.70;99.90;;;;;;4942562;28;20057;-83
2022/03/15 12:34:09;;;;;;;24.77;13.07;;;12.70;99.90;;;;;;4964910;28;20132;-83
2022/03/15 12:36:40;;;;;;;21.05;11.63;;;12.60;99.90;;;;;;4969280;28;20105;-83
2022/03/15 12:39:14;;;;;;;20.83;11.60;;;12.50;99.90;;;;;;4942431;28;20062;-84
2022/03/15 12:41:40;;;;;;;21.00;11.27;;;12.50;99.90;;;;;;4941795;28;20047;-85
2022/03/15 12:44:09;;;;;;;19.65;11.38;;;12.50;99.90;;;;;;4959656;28;20424;-84